Time;durP1;ratioP1;P1;durP2;ratioP2;P2;SDS_P1;SDS_P2;PMS_P1;PMS_P2;Temp;Humidity;BMP_temperature;BMP_pressure;BME280_temperature;BME280_humidity;BME280_pressure;Samples;Min_cycle;Max_cycle;Signal;HPM_P1;HPM_P2
2022/09/07 00:04:23;;;;;;;7.13;2.40;;;;;;;17.86;75.58;96146.53;10354031;28;96725;-58
2022/09/07 00:09:27;;;;;;;5.68;2.08;;;;;;;17.80;76.20;96162.31;10374097;28;98113;-58
2022/09/07 00:14:30;;;;;;;6.70;2.13;;;;;;;17.67;76.08;96163.88;10369655;28;98640;-59
2022/09/07 00:19:33;;;;;;;3.97;2.40;;;;;;;17.61;76.56;96159.34;10343080;28;98595;-60
2022/09/07 00:24:37;;;;;;;6.90;2.40;;;;;;;17.57;76.93;96160.75;10341742;28;97036;-58
2022/09/07 00:29:40;;;;;;;5.50;2.55;;;;;;;17.57;77.12;96158.13;10335235;28;97320;-58
2022/09/07 00:34:43;;;;;;;5.72;2.38;;;;;;;17.66;76.24;96146.38;10346075;28;98255;-59
2022/09/07 00:39:48;;;;;;;7.13;2.80;;;;;;;17.74;75.36;96148.06;10336390;28;97349;-58
2022/09/07 00:45:14;;;;;;;6.28;2.75;;;;;;;17.74;75.65;96140.94;10369142;28;97118;-59
2022/09/07 00:50:22;;;;;;;6.72;2.65;;;;;;;17.68;75.79;96139.09;10334020;28;96959;-59
2022/09/07 00:55:27;;;;;;;11.35;3.10;;;;;;;17.59;76.19;96144.72;10332793;28;97036;-58
2022/09/07 01:00:31;;;;;;;6.78;2.83;;;;;;;17.50;76.41;96142.22;10367744;28;96773;-58
2022/09/07 01:05:40;;;;;;;6.03;2.87;;;;;;;17.29;77.88;96143.09;10359401;28;97180;-59
2022/09/07 01:10:45;;;;;;;8.77;2.53;;;;;;;17.10;77.66;96159.63;10373999;28;96872;-60
2022/09/07 01:15:56;;;;;;;7.68;2.80;;;;;;;17.02;78.33;96146.53;10343261;28;98339;-58
2022/09/07 01:21:21;;;;;;;7.90;2.75;;;;;;;17.03;78.51;96142.91;10332055;28;97066;-60
2022/09/07 01:26:48;;;;;;;6.32;2.97;;;;;;;17.03;78.58;96138.44;10333139;28;96692;-58
2022/09/07 01:32:04;;;;;;;9.20;3.58;;;;;;;16.89;79.05;96129.59;10347948;28;96832;-59
2022/09/07 01:37:16;;;;;;;6.72;2.80;;;;;;;16.59;79.46;96124.44;10351769;28;97752;-60
2022/09/07 01:42:24;;;;;;;9.98;3.45;;;;;;;16.50;79.92;96120.28;10372499;28;96811;-59
2022/09/07 01:47:33;;;;;;;7.78;2.80;;;;;;;16.50;79.73;96115.03;10337166;28;97138;-59
2022/09/07 01:52:41;;;;;;;6.05;2.60;;;;;;;16.44;79.40;96115.75;10332217;28;96729;-59
2022/09/07 01:57:50;;;;;;;6.72;2.78;;;;;;;16.39;79.37;96120.78;10346746;28;96760;-59
2022/09/07 02:02:59;;;;;;;8.75;3.42;;;;;;;16.40;79.60;96122.41;10346197;28;98605;-58
2022/09/07 02:08:11;;;;;;;8.73;3.45;;;;;;;16.25;79.73;96115.34;10352406;28;96930;-59
2022/09/07 02:13:19;;;;;;;7.32;3.40;;;;;;;16.11;80.24;96110.94;10370348;28;96956;-59
2022/09/07 02:18:26;;;;;;;5.43;3.63;;;;;;;16.02;80.84;96117.34;10370980;28;96723;-59
2022/09/07 02:23:35;;;;;;;9.32;3.38;;;;;;;15.96;80.68;96121.50;10364172;28;98619;-59
2022/09/07 02:28:39;;;;;;;8.95;3.50;;;;;;;15.83;81.58;96118.72;10385664;28;98770;-58
2022/09/07 02:33:43;;;;;;;9.40;3.37;;;;;;;15.69;81.59;96107.19;10335771;27;97428;-59
2022/09/07 02:38:46;;;;;;;6.65;3.58;;;;;;;15.62;81.56;96111.56;10368422;28;96724;-59
2022/09/07 02:43:49;;;;;;;7.72;3.90;;;;;;;15.65;81.01;96105.91;10366184;28;97174;-58
2022/09/07 02:49:03;;;;;;;8.93;3.47;;;;;;;15.66;81.44;96108.38;10344141;28;97090;-58
2022/09/07 02:54:32;;;;;;;8.02;3.17;;;;;;;15.57;81.55;96103.38;10352875;28;97178;-59
2022/09/07 02:59:45;;;;;;;8.45;3.03;;;;;;;15.55;81.50;96093.00;10352950;28;97232;-59
2022/09/07 03:04:53;;;;;;;8.13;3.15;;;;;;;15.59;80.89;96089.03;10367737;28;98560;-58
2022/09/07 03:10:01;;;;;;;8.98;3.53;;;;;;;15.46;80.92;96092.28;10354037;28;97660;-58
2022/09/07 03:15:04;;;;;;;6.97;2.95;;;;;;;15.32;81.81;96077.28;10374620;28;96895;-61
2022/09/07 03:20:09;;;;;;;7.47;3.38;;;;;;;15.34;81.55;96077.13;10335413;28;96685;-59
2022/09/07 03:25:13;;;;;;;11.70;3.35;;;;;;;15.39;81.03;96070.31;10339254;28;97034;-59
2022/09/07 03:30:15;;;;;;;7.75;3.10;;;;;;;15.41;81.14;96073.59;10359503;28;97178;-60
2022/09/07 03:35:20;;;;;;;6.00;3.35;;;;;;;15.44;80.77;96056.59;10344092;28;96920;-59
2022/09/07 03:40:23;;;;;;;6.47;2.93;;;;;;;15.45;80.74;96060.88;10377628;28;96757;-59
2022/09/07 03:45:25;;;;;;;6.43;3.17;;;;;;;15.28;80.84;96062.88;10338900;28;97174;-58
2022/09/07 03:50:29;;;;;;;6.38;3.40;;;;;;;15.09;82.33;96059.75;10336042;28;96917;-59
2022/09/07 03:55:32;;;;;;;9.77;2.97;;;;;;;15.20;81.65;96060.31;10332985;28;97115;-59
2022/09/07 04:00:35;;;;;;;6.47;2.70;;;;;;;15.27;81.63;96046.28;10338452;28;98661;-58
2022/09/07 04:05:39;;;;;;;13.52;3.53;;;;;;;15.34;80.98;96054.25;10335576;28;96767;-59
2022/09/07 04:10:42;;;;;;;5.10;2.60;;;;;;;15.39;80.93;96049.28;10351163;28;98378;-58
2022/09/07 04:15:45;;;;;;;7.55;2.70;;;;;;;15.39;80.69;96044.00;10334363;28;96726;-58
2022/09/07 04:20:58;;;;;;;6.95;2.60;;;;;;;15.41;80.33;96046.44;10339913;28;97897;-58
2022/09/07 04:26:01;;;;;;;6.55;2.47;;;;;;;15.56;80.39;96070.13;10337991;28;97722;-58
2022/09/07 04:31:04;;;;;;;7.05;3.50;;;;;;;15.50;80.54;96069.03;10346262;28;96817;-58
2022/09/07 04:36:09;;;;;;;6.97;3.05;;;;;;;15.29;81.58;96075.03;10351788;28;98346;-59
2022/09/07 04:41:13;;;;;;;7.70;2.92;;;;;;;15.20;81.83;96063.78;10368529;28;97356;-59
2022/09/07 04:46:19;;;;;;;;;;;;;;;15.16;81.24;96061.69;10363668;28;96862;-58
2022/09/07 04:51:25;;;;;;;7.80;3.53;;;;;;;15.17;81.67;96047.53;10366176;28;96786;-59
2022/09/07 04:56:29;;;;;;;7.72;3.75;;;;;;;15.17;82.04;96044.91;10373695;28;96967;-58
2022/09/07 05:01:32;;;;;;;9.75;3.67;;;;;;;15.12;81.75;96034.94;10337821;28;97313;-59
2022/09/07 05:06:36;;;;;;;5.50;3.00;;;;;;;15.13;81.92;96045.28;10402918;27;97891;-58
2022/09/07 05:11:39;;;;;;;7.43;3.20;;;;;;;15.16;81.52;96053.78;10384823;28;97075;-59
2022/09/07 05:16:42;;;;;;;7.15;3.03;;;;;;;15.08;81.16;96052.88;10370719;28;98457;-58
2022/09/07 05:21:46;;;;;;;6.30;2.92;;;;;;;15.07;80.98;96042.53;10335660;28;98984;-61
2022/09/07 05:26:49;;;;;;;6.57;3.07;;;;;;;15.17;81.27;96051.00;10352515;28;98951;-59
2022/09/07 05:31:53;;;;;;;6.65;3.70;;;;;;;15.11;81.71;96044.63;10349388;28;97767;-58
2022/09/07 05:36:58;;;;;;;7.93;3.17;;;;;;;15.04;81.80;96051.59;10338995;28;96845;-60
2022/09/07 05:42:01;;;;;;;8.20;3.60;;;;;;;15.16;81.55;96053.78;10366992;28;99110;-61
2022/09/07 05:47:03;;;;;;;8.13;3.10;;;;;;;15.28;81.38;96054.97;10355610;28;98348;-59
2022/09/07 05:52:08;;;;;;;8.75;3.00;;;;;;;15.47;80.78;96049.16;10360375;28;96809;-60
2022/09/07 05:57:12;;;;;;;5.93;2.90;;;;;;;15.64;80.59;96059.53;10369418;28;97092;-59
2022/09/07 06:02:15;;;;;;;6.73;2.77;;;;;;;15.88;79.76;96056.56;10358898;28;97981;-60
2022/09/07 06:07:19;;;;;;;6.45;2.85;;;;;;;16.02;78.87;96062.00;10362158;28;98555;-58
2022/09/07 06:12:24;;;;;;;6.88;2.63;;;;;;;16.21;79.28;96066.66;10372409;28;96843;-58
2022/09/07 06:17:28;;;;;;;8.25;2.63;;;;;;;16.33;78.87;96066.16;10344420;28;97204;-58
2022/09/07 06:22:35;;;;;;;4.72;2.47;;;;;;;16.43;78.71;96071.94;10349726;28;97228;-58
2022/09/07 06:27:37;;;;;;;8.30;2.72;;;;;;;16.63;78.91;96078.19;10381432;28;99813;-59
2022/09/07 06:32:40;;;;;;;10.68;2.80;;;;;;;16.76;78.27;96087.25;10365102;28;99280;-58
2022/09/07 06:37:49;;;;;;;7.32;2.40;;;;;;;16.87;78.22;96073.56;10390991;28;96914;-58
2022/09/07 06:42:52;;;;;;;7.00;2.93;;;;;;;17.00;78.28;96073.69;10413440;28;97066;-58
2022/09/07 06:47:55;;;;;;;6.13;2.08;;;;;;;17.10;78.32;96067.25;10393878;28;96852;-58
2022/09/07 06:52:59;;;;;;;6.15;2.60;;;;;;;17.19;78.07;96061.59;10388778;28;97419;-59
2022/09/07 06:58:23;;;;;;;6.27;3.27;;;;;;;17.37;78.05;96062.94;10374979;28;96797;-59
2022/09/07 07:03:26;;;;;;;9.63;3.50;;;;;;;17.62;78.32;96057.97;10401572;28;96866;-58
2022/09/07 07:08:31;;;;;;;8.20;3.58;;;;;;;17.87;78.57;96076.00;10386024;28;96751;-59
2022/09/07 07:13:35;;;;;;;8.95;4.00;;;;;;;17.93;78.61;96088.44;10393972;28;97148;-58
2022/09/07 07:18:38;;;;;;;8.10;4.13;;;;;;;18.04;79.17;96081.75;10401023;28;96730;-59
2022/09/07 07:23:42;;;;;;;9.98;3.90;;;;;;;18.14;79.39;96082.19;10394019;28;96865;-59
2022/09/07 07:28:46;;;;;;;9.30;4.50;;;;;;;18.25;79.58;96064.94;10383253;28;96718;-58
2022/09/07 07:34:06;;;;;;;10.50;3.10;;;;;;;18.50;79.39;96073.13;10402531;28;96698;-58
2022/09/07 07:39:10;;;;;;;7.70;3.72;;;;;;;18.78;78.49;96070.28;10411403;28;96721;-59
2022/09/07 07:44:33;;;;;;;8.57;3.00;;;;;;;19.15;77.94;96070.69;10382362;28;96919;-58
2022/09/07 07:49:36;;;;;;;8.18;3.25;;;;;;;19.54;77.52;96069.00;10398087;28;96846;-59
2022/09/07 07:54:40;;;;;;;8.27;3.38;;;;;;;19.81;76.31;96058.31;10393208;28;96862;-59
2022/09/07 07:59:42;;;;;;;7.97;3.72;;;;;;;20.13;75.72;96071.63;10383023;28;97145;-58
2022/09/07 08:04:45;;;;;;;7.32;3.13;;;;;;;20.37;74.55;96073.56;10401851;28;97135;-58
2022/09/07 08:09:49;;;;;;;7.32;3.28;;;;;;;20.51;74.34;96060.19;10390097;28;97142;-60
2022/09/07 08:14:52;;;;;;;7.55;3.47;;;;;;;20.72;73.47;96064.34;10389248;28;96809;-58
2022/09/07 08:19:56;;;;;;;6.05;3.00;;;;;;;20.98;72.86;96060.72;10405632;28;97262;-59
2022/09/07 08:25:00;;;;;;;6.97;2.95;;;;;;;21.01;72.33;96073.53;10392146;28;96929;-59
2022/09/07 08:30:03;;;;;;;;;;;;;;;21.19;72.48;96074.59;10400664;28;96764;-58
2022/09/07 08:35:06;;;;;;;6.18;3.05;;;;;;;21.36;70.96;96070.34;10385119;28;96905;-58
2022/09/07 08:40:16;;;;;;;7.13;2.40;;;;;;;21.49;69.64;96064.91;10400715;28;97005;-59
2022/09/07 08:45:27;;;;;;;5.55;2.80;;;;;;;21.57;68.74;96061.16;10398917;27;96779;-60
2022/09/07 08:50:37;;;;;;;5.38;2.20;;;;;;;21.57;68.31;96049.69;10387781;28;96705;-60
2022/09/07 08:55:47;;;;;;;5.53;2.60;;;;;;;21.41;68.72;96043.91;10392536;28;96948;-60
2022/09/07 09:00:50;;;;;;;8.40;3.40;;;;;;;21.18;69.30;96036.59;10399388;28;97334;-58
2022/09/07 09:06:19;;;;;;;7.68;3.25;;;;;;;20.99;69.37;96032.31;10366625;28;96964;-59
2022/09/07 09:11:35;;;;;;;11.30;3.10;;;;;;;21.01;70.02;96040.84;10390903;28;96826;-59
2022/09/07 09:16:42;;;;;;;6.20;2.90;;;;;;;21.36;69.19;96043.78;10390024;28;96870;-59
2022/09/07 09:21:45;;;;;;;6.00;3.03;;;;;;;21.64;68.38;96034.50;10394623;28;96895;-59
2022/09/07 09:26:56;;;;;;;5.50;2.38;;;;;;;21.69;68.16;96046.13;10385784;28;96741;-59
2022/09/07 09:31:58;;;;;;;6.68;2.40;;;;;;;21.81;67.26;96032.06;10397473;28;96747;-59
2022/09/07 09:37:01;;;;;;;10.50;2.92;;;;;;;21.86;67.16;96033.00;10399445;28;97362;-59
2022/09/07 09:42:17;;;;;;;7.05;2.67;;;;;;;22.05;66.57;96022.34;10365174;28;96607;-58
2022/09/07 09:47:28;;;;;;;7.00;2.65;;;;;;;22.28;65.73;96018.13;10385645;28;97091;-59
2022/09/07 09:52:36;;;;;;;6.80;3.08;;;;;;;22.63;65.43;96010.28;10392347;27;96817;-59
2022/09/07 09:57:57;;;;;;;6.68;2.80;;;;;;;23.00;63.99;96018.84;10388868;28;96809;-59
2022/09/07 10:03:19;;;;;;;7.55;2.85;;;;;;;23.30;62.95;96015.28;10395494;28;97121;-59
2022/09/07 10:08:55;;;;;;;6.45;2.78;;;;;;;23.35;64.29;96020.72;10389218;27;96943;-59
2022/09/07 10:13:59;;;;;;;7.38;2.70;;;;;;;23.36;64.64;95993.03;10374065;27;96882;-60
2022/09/07 10:19:02;;;;;;;7.25;3.00;;;;;;;23.60;63.51;95997.50;10388762;28;96725;-59
2022/09/07 10:24:14;;;;;;;5.88;2.80;;;;;;;23.72;62.62;95991.09;10384354;28;96893;-59
2022/09/07 10:29:26;;;;;;;9.48;3.08;;;;;;;23.78;62.11;95985.84;10391013;28;96805;-58
2022/09/07 10:34:40;;;;;;;7.57;2.97;;;;;;;23.80;62.49;95976.56;10386334;28;96751;-59
2022/09/07 10:39:57;;;;;;;7.60;2.70;;;;;;;23.95;61.78;95973.38;10394028;28;96917;-59
2022/09/07 10:45:18;;;;;;;8.00;2.70;;;;;;;23.80;61.51;95970.44;10394740;28;96933;-59
2022/09/07 10:50:29;;;;;;;7.43;2.75;;;;;;;23.48;61.24;95944.19;10352627;28;97090;-60
2022/09/07 10:55:34;;;;;;;6.78;2.65;;;;;;;23.37;61.54;95944.00;10392708;28;97171;-58
2022/09/07 11:00:46;;;;;;;5.85;2.45;;;;;;;23.19;61.23;95925.47;10387504;28;96867;-59
2022/09/07 11:06:06;;;;;;;5.93;2.58;;;;;;;23.53;61.21;95912.31;10386658;28;96813;-59
2022/09/07 11:11:18;;;;;;;7.15;2.40;;;;;;;23.92;59.97;95913.28;10394925;28;96841;-59
2022/09/07 11:16:25;;;;;;;7.47;2.63;;;;;;;24.26;57.99;95915.22;10386663;27;98515;-59
2022/09/07 11:21:58;;;;;;;8.75;2.47;;;;;;;24.62;57.00;95908.56;10381231;28;97097;-59
2022/09/07 11:27:09;;;;;;;4.78;2.08;;;;;;;24.96;57.37;95889.84;10380193;27;96839;-58
2022/09/07 11:32:20;;;;;;;5.65;2.50;;;;;;;25.25;55.91;95895.81;10378470;28;97280;-59
2022/09/07 11:37:29;;;;;;;6.78;2.35;;;;;;;25.29;54.99;95889.97;10395519;28;96749;-59
2022/09/07 11:42:34;;;;;;;8.20;2.50;;;;;;;25.25;54.78;95869.09;10391181;27;97029;-59
2022/09/07 11:47:53;;;;;;;5.32;2.00;;;;;;;25.56;54.38;95864.06;10399047;28;97057;-59
2022/09/07 11:53:00;;;;;;;7.47;3.00;;;;;;;25.63;54.40;95853.19;10401997;28;97177;-58
2022/09/07 11:58:28;;;;;;;7.47;2.35;;;;;;;25.24;54.41;95838.06;10369495;28;96981;-59
2022/09/07 12:03:56;;;;;;;6.60;2.50;;;;;;;25.22;53.52;95840.19;10398334;28;96693;-59
2022/09/07 12:09:26;;;;;;;7.25;2.33;;;;;;;25.37;53.96;95825.34;10393224;27;96793;-59
2022/09/07 12:14:40;;;;;;;4.18;1.95;;;;;;;25.55;53.63;95827.72;10370403;28;97310;-59
2022/09/07 12:19:44;;;;;;;6.38;2.30;;;;;;;25.53;53.21;95816.44;10390292;28;96821;-59
2022/09/07 12:24:50;;;;;;;7.03;2.20;;;;;;;25.65;52.78;95804.78;10383895;28;97228;-59
2022/09/07 12:30:52;;;;;;;6.68;2.15;;;;;;;26.26;52.12;95797.28;10385821;28;97047;-59
2022/09/07 12:35:59;;;;;;;5.10;2.25;;;;;;;26.48;52.17;95793.63;10398001;27;96878;-59
2022/09/07 12:41:04;;;;;;;5.68;2.28;;;;;;;26.68;51.09;95793.75;10400892;28;96670;-59
2022/09/07 12:46:18;;;;;;;5.15;2.22;;;;;;;26.28;51.51;95787.09;10387336;28;98566;-59
2022/09/07 12:51:34;;;;;;;5.53;1.80;;;;;;;26.45;51.23;95778.09;10387866;28;96979;-60
2022/09/07 12:56:59;;;;;;;6.30;2.00;;;;;;;26.70;50.22;95762.13;10399958;28;96850;-58
2022/09/07 13:02:45;;;;;;;7.13;2.00;;;;;;;26.83;50.90;95758.19;10391901;28;97966;-59
2022/09/07 13:08:10;;;;;;;7.00;2.20;;;;;;;26.60;49.87;95754.06;10376859;28;97964;-59
2022/09/07 13:13:20;;;;;;;9.05;2.20;;;;;;;26.43;50.26;95732.00;10369895;27;97928;-59
2022/09/07 13:18:45;;;;;;;5.97;1.65;;;;;;;26.93;50.71;95741.31;10385692;28;96785;-59
2022/09/07 13:24:29;;;;;;;3.65;2.00;;;;;;;27.18;49.09;95753.19;10384896;28;96721;-59
2022/09/07 13:29:52;;;;;;;4.97;1.98;;;;;;;27.33;48.18;95758.59;10396556;28;97316;-59
2022/09/07 13:35:08;;;;;;;7.75;2.15;;;;;;;27.69;48.15;95737.19;10399036;28;96810;-59
2022/09/07 13:40:19;;;;;;;6.82;2.33;;;;;;;27.93;47.03;95732.06;10351600;28;97029;-59
2022/09/07 13:45:29;;;;;;;5.20;2.17;;;;;;;27.99;46.53;95722.94;10395194;28;97058;-59
2022/09/07 13:50:41;;;;;;;5.63;1.98;;;;;;;27.85;47.86;95714.63;10389286;27;96918;-59
2022/09/07 13:55:54;;;;;;;6.82;2.47;;;;;;;28.15;48.01;95710.28;10387582;28;97347;-60
2022/09/07 14:01:01;;;;;;;7.50;2.22;;;;;;;28.28;48.06;95700.88;10399567;28;97342;-59
2022/09/07 14:06:26;;;;;;;5.07;2.50;;;;;;;27.76;48.91;95685.94;10390280;28;97330;-59
2022/09/07 14:11:40;;;;;;;5.97;1.92;;;;;;;27.63;48.55;95703.38;10393204;28;97130;-59
2022/09/07 14:16:45;;;;;;;6.13;2.25;;;;;;;27.58;48.90;95689.94;10373464;28;96817;-59
2022/09/07 14:21:57;;;;;;;4.50;1.95;;;;;;;27.39;48.72;95674.38;10395213;28;96783;-59
2022/09/07 14:27:02;;;;;;;7.57;2.40;;;;;;;27.29;49.93;95680.53;10397343;28;96792;-59
2022/09/07 14:32:10;;;;;;;6.22;2.00;;;;;;;27.20;50.04;95681.38;10381945;28;96808;-58
2022/09/07 14:37:16;;;;;;;8.82;2.30;;;;;;;26.93;49.78;95671.63;10389436;28;98058;-59
2022/09/07 14:42:22;;;;;;;12.23;2.75;;;;;;;26.91;55.34;95657.69;10386816;28;97309;-59
2022/09/07 14:47:28;;;;;;;8.68;2.78;;;;;;;26.36;54.83;95678.69;10375741;28;97256;-58
2022/09/07 14:52:33;;;;;;;7.47;2.95;;;;;;;25.82;56.87;95663.66;10397170;28;96974;-58
2022/09/07 14:57:43;;;;;;;13.48;2.88;;;;;;;25.52;57.88;95681.09;10391888;27;96626;-59
2022/09/07 15:02:46;;;;;;;9.02;2.75;;;;;;;25.11;58.80;95680.75;10387192;27;97328;-59
2022/09/07 15:07:51;;;;;;;6.93;2.42;;;;;;;24.74;59.86;95662.72;10397195;28;96780;-58
2022/09/07 15:12:57;;;;;;;8.98;3.03;;;;;;;24.58;61.40;95667.09;10376001;28;98125;-59
2022/09/07 15:18:01;;;;;;;7.85;2.83;;;;;;;24.32;63.46;95668.69;10383137;28;96792;-59
2022/09/07 15:23:12;;;;;;;7.90;3.75;;;;;;;23.99;64.72;95649.03;10392739;27;98361;-59
2022/09/07 15:28:24;;;;;;;7.72;3.38;;;;;;;23.86;66.18;95649.38;10394425;28;96738;-58
2022/09/07 15:33:47;;;;;;;7.25;2.67;;;;;;;23.92;65.86;95653.72;10397187;28;96918;-59
2022/09/07 15:38:50;;;;;;;8.10;3.08;;;;;;;23.90;65.46;95655.84;10383993;28;97275;-60
2022/09/07 15:44:09;;;;;;;6.88;2.88;;;;;;;23.99;66.26;95646.34;10380923;28;96830;-59
2022/09/07 15:49:12;;;;;;;6.40;3.08;;;;;;;23.79;67.69;95654.06;10385773;27;96780;-59
2022/09/07 15:54:17;;;;;;;7.23;2.77;;;;;;;23.64;65.94;95668.81;10391952;28;96900;-59
2022/09/07 15:59:23;;;;;;;6.47;3.25;;;;;;;23.52;66.83;95687.56;10390961;28;96837;-58
2022/09/07 16:04:26;;;;;;;8.43;3.42;;;;;;;23.44;67.14;95679.16;10376584;28;97080;-59
2022/09/07 16:09:29;;;;;;;9.35;3.10;;;;;;;23.32;67.33;95664.03;10391962;28;96814;-59
2022/09/07 16:14:33;;;;;;;5.93;2.50;;;;;;;23.18;67.31;95666.19;10398468;28;96888;-59
2022/09/07 16:19:37;;;;;;;5.95;2.75;;;;;;;22.96;67.21;95667.94;10344602;28;98568;-62
2022/09/07 16:24:42;;;;;;;9.98;4.28;;;;;;;22.85;67.64;95669.63;10364855;28;97397;-58
2022/09/07 16:29:47;;;;;;;6.55;2.90;;;;;;;22.68;68.37;95693.53;10350116;28;96903;-61
2022/09/07 16:34:49;;;;;;;;;;;;;;;22.45;68.11;95676.56;10368790;27;97535;-60
2022/09/07 16:39:52;;;;;;;4.63;2.45;;;;;;;22.28;68.86;95674.91;10391408;28;96918;-61
2022/09/07 16:44:57;;;;;;;5.90;3.28;;;;;;;21.93;70.63;95649.19;10358992;28;98467;-59
2022/09/07 16:50:19;;;;;;;7.80;3.78;;;;;;;21.68;72.71;95628.97;10368946;28;97151;-59
2022/09/07 16:55:22;;;;;;;8.95;3.72;;;;;;;21.59;73.26;95630.31;10375273;28;96796;-59
2022/09/07 17:00:26;;;;;;;10.63;3.75;;;;;;;21.47;73.70;95617.88;10393455;28;96768;-58
2022/09/07 17:05:39;;;;;;;7.75;3.47;;;;;;;21.46;75.15;95634.84;10347291;28;97045;-60
2022/09/07 17:10:41;;;;;;;7.05;3.42;;;;;;;21.54;73.95;95614.28;10380735;28;98573;-58
2022/09/07 17:15:45;;;;;;;10.10;4.10;;;;;;;21.20;74.68;95614.03;10345115;28;98441;-60
2022/09/07 17:20:55;;;;;;;8.82;4.15;;;;;;;20.88;75.31;95607.19;10349728;28;97351;-59
2022/09/07 17:26:04;;;;;;;6.97;4.20;;;;;;;20.74;75.74;95593.31;10362143;28;97298;-58
2022/09/07 17:31:10;;;;;;;11.98;4.03;;;;;;;20.75;75.41;95592.28;10368070;28;96890;-59
2022/09/07 17:36:34;;;;;;;8.07;3.78;;;;;;;20.71;74.84;95579.66;10366923;28;96781;-58
2022/09/07 17:41:37;;;;;;;13.10;5.70;;;;;;;20.56;75.95;95569.44;10354919;28;97577;-59
2022/09/07 17:46:41;;;;;;;8.05;3.95;;;;;;;20.49;76.06;95543.00;10382180;27;96858;-58
2022/09/07 17:51:44;;;;;;;114.60;102.22;;;;;;;20.55;76.19;95559.91;10368224;28;96813;-59
2022/09/07 17:56:47;;;;;;;9.32;4.90;;;;;;;20.67;76.01;95563.38;10390527;27;96815;-58
2022/09/07 18:01:52;;;;;;;8.02;4.25;;;;;;;20.65;76.15;95548.72;10385601;27;96945;-59
2022/09/07 18:06:56;;;;;;;6.15;4.18;;;;;;;20.50;76.52;95530.59;10378700;28;96912;-59
2022/09/07 18:11:58;;;;;;;8.70;4.15;;;;;;;20.40;76.85;95535.63;10383388;28;96869;-58
2022/09/07 18:17:04;;;;;;;7.07;4.03;;;;;;;20.22;77.56;95603.59;10384323;28;96959;-62
2022/09/07 18:22:08;;;;;;;8.38;3.70;;;;;;;20.12;77.27;95612.09;10355086;28;98056;-58
2022/09/07 18:27:10;;;;;;;8.52;3.78;;;;;;;20.21;77.13;95590.56;10371402;28;97483;-59
2022/09/07 18:32:15;;;;;;;7.28;3.70;;;;;;;20.21;76.97;95588.72;10361703;28;97991;-58
2022/09/07 18:37:17;;;;;;;10.40;5.20;;;;;;;20.22;76.70;95592.16;10366311;28;97159;-58
2022/09/07 18:42:21;;;;;;;9.97;3.63;;;;;;;20.17;76.41;95590.22;10384248;27;97053;-59
2022/09/07 18:47:25;;;;;;;9.15;3.70;;;;;;;20.05;76.95;95602.59;10368598;28;97576;-58
2022/09/07 18:52:31;;;;;;;6.43;3.20;;;;;;;19.90;77.13;95601.13;10372139;28;96899;-60
2022/09/07 18:57:53;;;;;;;8.10;3.65;;;;;;;19.84;76.32;95590.63;10362184;28;98044;-58
2022/09/07 19:02:58;;;;;;;7.23;3.03;;;;;;;19.83;75.75;95600.38;10366181;28;97161;-58
2022/09/07 19:08:02;;;;;;;40.40;28.63;;;;;;;19.69;76.46;95588.28;10352152;28;98463;-59
2022/09/07 19:13:05;;;;;;;8.67;3.50;;;;;;;19.61;77.09;95592.88;10358875;28;96885;-59
2022/09/07 19:18:09;;;;;;;6.07;3.28;;;;;;;19.62;76.29;95581.22;10356143;27;98637;-60
2022/09/07 19:23:12;;;;;;;4.55;3.05;;;;;;;19.56;76.38;95589.25;10379345;28;98633;-59
2022/09/07 19:28:15;;;;;;;13.32;4.53;;;;;;;19.57;76.98;95574.97;10348609;28;96943;-59
2022/09/07 19:33:19;;;;;;;7.50;3.90;;;;;;;19.57;76.99;95586.38;10374920;28;97007;-60
2022/09/07 19:38:22;;;;;;;5.25;3.08;;;;;;;19.22;77.77;95591.41;10374178;28;96801;-61
2022/09/07 19:43:25;;;;;;;10.00;6.18;;;;;;;19.24;77.61;95598.13;10366462;28;96953;-60
2022/09/07 19:48:31;;;;;;;6.37;3.40;;;;;;;19.40;77.97;95595.91;10368747;28;97264;-60
2022/09/07 19:53:36;;;;;;;7.00;3.70;;;;;;;19.38;77.96;95601.47;10363256;28;97082;-58
2022/09/07 19:58:40;;;;;;;7.72;3.92;;;;;;;19.23;78.17;95593.84;10350277;28;96959;-59
2022/09/07 20:03:45;;;;;;;6.47;4.00;;;;;;;19.21;78.68;95585.31;10386368;28;96858;-59
2022/09/07 20:08:48;;;;;;;8.23;4.05;;;;;;;19.18;79.27;95582.28;10393914;28;96800;-58
2022/09/07 20:13:51;;;;;;;10.00;5.10;;;;;;;19.03;79.22;95580.78;10370848;28;96964;-58
2022/09/07 20:18:55;;;;;;;6.35;4.57;;;;;;;19.03;80.12;95587.91;10345828;28;98702;-58
2022/09/07 20:23:58;;;;;;;;;;;;;;;19.00;79.16;95607.69;10378470;27;97393;-59
2022/09/07 20:29:01;;;;;;;5.82;4.07;;;;;;;19.05;79.22;95591.16;10374958;28;96923;-59
2022/09/07 20:34:25;;;;;;;7.13;3.80;;;;;;;19.06;78.96;95590.13;10375962;28;96677;-59
2022/09/07 20:39:28;;;;;;;10.32;5.15;;;;;;;19.10;79.47;95585.22;10366130;28;97867;-59
2022/09/07 20:44:31;;;;;;;7.85;4.28;;;;;;;19.07;79.34;95565.25;10365587;28;97549;-58
2022/09/07 20:49:35;;;;;;;30.17;20.90;;;;;;;18.98;79.85;95582.44;10363752;28;97746;-59
2022/09/07 20:54:38;;;;;;;7.35;4.35;;;;;;;18.91;80.34;95577.22;10364072;28;99261;-60
2022/09/07 20:59:40;;;;;;;11.45;5.10;;;;;;;18.72;81.47;95615.19;10363214;28;97153;-58
2022/09/07 21:04:44;;;;;;;14.73;7.60;;;;;;;17.50;86.66;95565.72;10362189;28;99435;-61
2022/09/07 21:09:47;;;;;;;11.82;5.43;;;;;;;16.87;89.21;95606.59;10356241;28;98305;-59
2022/09/07 21:14:50;;;;;;;20.23;6.95;;;;;;;16.48;90.69;95602.88;10370553;28;99266;-63
2022/09/07 21:19:54;;;;;;;5.75;3.58;;;;;;;16.51;91.34;95635.94;10349828;28;96940;-60
2022/09/07 21:24:57;;;;;;;8.20;4.70;;;;;;;16.41;91.39;95675.84;10383431;28;96896;-59
2022/09/07 21:30:00;;;;;;;8.65;3.97;;;;;;;16.23;91.75;95669.31;10360788;28;97648;-61
2022/09/07 21:35:05;;;;;;;11.35;2.80;;;;;;;15.55;92.11;95670.94;10366850;28;96951;-61
2022/09/07 21:40:08;;;;;;;6.10;2.30;;;;;;;14.97;93.45;95648.25;10368741;28;96849;-59
2022/09/07 21:45:11;;;;;;;3.60;1.98;;;;;;;14.95;92.85;95616.06;10374545;28;96857;-60
2022/09/07 21:50:15;;;;;;;3.83;1.65;;;;;;;14.74;93.15;95630.88;10384095;28;97280;-59
2022/09/07 21:55:18;;;;;;;1.53;1.20;;;;;;;14.39;92.71;95573.94;10371800;28;99106;-59
2022/09/07 22:00:21;;;;;;;2.63;1.40;;;;;;;14.19;92.85;95588.47;10369381;28;98360;-60
2022/09/07 22:05:26;;;;;;;3.00;1.30;;;;;;;14.31;92.07;95624.75;10372793;28;96809;-58
2022/09/07 22:10:28;;;;;;;1.63;1.10;;;;;;;14.59;91.90;95677.44;10362980;28;99156;-59
2022/09/07 22:15:36;;;;;;;1.85;1.58;;;;;;;14.73;90.83;95645.03;10349237;28;97563;-58
2022/09/07 22:20:40;;;;;;;2.67;1.45;;;;;;;14.91;91.08;95630.63;10363930;28;96755;-59
2022/09/07 22:25:51;;;;;;;2.00;1.40;;;;;;;15.03;90.27;95639.63;10368763;28;97586;-60
2022/09/07 22:30:54;;;;;;;1.13;0.93;;;;;;;15.38;87.92;95626.50;10365473;28;96797;-59
2022/09/07 22:36:08;;;;;;;1.80;1.30;;;;;;;15.35;88.73;95687.41;10370138;28;99086;-58
2022/09/07 22:41:15;;;;;;;1.92;1.40;;;;;;;14.91;88.70;95654.28;10357334;28;99082;-59
2022/09/07 22:46:19;;;;;;;2.72;1.60;;;;;;;15.10;89.02;95716.78;10358852;28;98888;-59
2022/09/07 22:51:25;;;;;;;3.63;1.63;;;;;;;15.10;89.07;95724.66;10359896;28;97940;-60
2022/09/07 22:56:31;;;;;;;2.28;1.63;;;;;;;15.17;89.94;95751.03;10356009;28;96795;-58
2022/09/07 23:01:35;;;;;;;2.17;1.63;;;;;;;15.19;89.89;95753.47;10360287;28;98664;-59
2022/09/07 23:06:40;;;;;;;3.20;1.85;;;;;;;15.26;90.09;95757.78;10345501;28;98510;-58
2022/09/07 23:11:43;;;;;;;3.97;1.77;;;;;;;15.30;89.98;95792.44;10346431;28;96859;-60
2022/09/07 23:16:46;;;;;;;2.17;1.52;;;;;;;15.33;89.34;95818.38;10371811;28;96786;-59
2022/09/07 23:21:51;;;;;;;3.65;1.65;;;;;;;14.96;90.08;95828.13;10360073;28;97511;-58
2022/09/07 23:26:53;;;;;;;1.73;1.60;;;;;;;14.97;90.66;95836.81;10368582;28;97933;-59
2022/09/07 23:31:56;;;;;;;2.15;1.30;;;;;;;14.97;89.91;95840.25;10373110;28;98581;-58
2022/09/07 23:37:00;;;;;;;1.95;1.45;;;;;;;15.04;89.44;95835.06;10374025;28;97430;-58
2022/09/07 23:42:03;;;;;;;3.10;1.63;;;;;;;15.11;89.69;95799.13;10376342;28;96739;-59
2022/09/07 23:47:06;;;;;;;3.50;1.67;;;;;;;15.18;89.31;95796.56;10364882;28;96688;-60
2022/09/07 23:52:11;;;;;;;3.03;1.88;;;;;;;15.26;89.41;95805.16;10377187;28;97054;-58